Time;durP1;ratioP1;P1;durP2;ratioP2;P2;SDS_P1;SDS_P2;PMS_P1;PMS_P2;Temp;Humidity;BMP_temperature;BMP_pressure;BME280_temperature;BME280_humidity;BME280_pressure;Samples;Min_cycle;Max_cycle;Signal;HPM_P1;HPM_P2
2021/05/18 00:00:49;;;;;;;1.62;1.47;;;;;;;;;;1713508;82;21017;-61
2021/05/18 00:03:17;;;;;;;2.83;1.55;;;;;;;;;;1713612;83;21005;-60
2021/05/18 00:05:52;;;;;;;1.55;1.45;;;;;;;;;;1709527;82;20993;-61
2021/05/18 00:08:20;;;;;;;1.60;1.50;;;;;;;;;;1707878;83;21036;-61
2021/05/18 00:13:36;;;;;;;2.37;2.05;;;;;;;;;;1713884;83;20978;-61
2021/05/18 00:16:02;;;;;;;1.70;1.60;;;;;;;;;;1713430;82;20982;-61
2021/05/18 00:18:29;;;;;;;3.25;2.02;;;;;;;;;;1711650;82;21037;-61
2021/05/18 00:20:55;;;;;;;1.70;1.60;;;;;;;;;;1713679;82;21547;-60
2021/05/18 00:23:21;;;;;;;2.12;2.00;;;;;;;;;;1713664;83;21058;-61
2021/05/18 00:25:48;;;;;;;1.82;1.72;;;;;;;;;;1727260;82;20917;-62
2021/05/18 00:28:14;;;;;;;4.50;2.30;;;;;;;;;;1726763;81;20991;-62
2021/05/18 00:30:40;;;;;;;1.80;1.70;;;;;;;;;;1741058;81;21079;-62
2021/05/18 00:33:10;;;;;;;3.98;2.02;;;;;;;;;;1744311;81;21094;-62
2021/05/18 00:35:36;;;;;;;1.95;1.70;;;;;;;;;;1740161;81;21582;-61
2021/05/18 00:38:04;;;;;;;1.90;1.80;;;;;;;;;;1741060;81;20940;-62
2021/05/18 00:40:30;;;;;;;2.67;2.00;;;;;;;;;;1741218;81;20927;-61
2021/05/18 00:42:56;;;;;;;2.05;1.80;;;;;;;;;;1744296;81;20964;-62
2021/05/18 00:45:31;;;;;;;2.20;1.87;;;;;;;;;;1741149;81;21848;-61
2021/05/18 00:47:58;;;;;;;2.20;1.40;;;;;;;;;;1739805;81;21520;-61
2021/05/18 00:50:24;;;;;;;2.12;1.95;;;;;;;;;;1741474;81;20983;-62
2021/05/18 00:52:51;;;;;;;2.35;2.20;;;;;;;;;;1741846;81;20936;-61
2021/05/18 00:55:34;;;;;;;2.08;1.98;;;;;;;;;;1743312;81;21011;-61
2021/05/18 01:00:34;;;;;;;2.47;2.27;;;;;;;;;;1739691;81;20987;-62
2021/05/18 01:03:01;;;;;;;2.72;1.87;;;;;;;;;;1739513;81;20941;-61
2021/05/18 01:08:13;;;;;;;2.57;2.23;;;;;;;;;;1739363;81;21537;-62
2021/05/18 01:10:40;;;;;;;2.33;2.05;;;;;;;;;;1742750;81;21695;-62
2021/05/18 01:13:06;;;;;;;1.98;1.77;;;;;;;;;;1737564;82;21040;-63
2021/05/18 01:15:32;;;;;;;2.65;2.22;;;;;;;;;;1737158;82;20991;-62
2021/05/18 01:17:58;;;;;;;2.60;2.05;;;;;;;;;;1734970;82;21032;-62
2021/05/18 01:20:25;;;;;;;3.08;2.08;;;;;;;;;;1709194;82;21592;-62
2021/05/18 01:22:51;;;;;;;2.47;2.08;;;;;;;;;;1737734;82;21088;-62
2021/05/18 01:25:18;;;;;;;1.95;1.85;;;;;;;;;;1732003;82;20974;-62
2021/05/18 01:27:45;;;;;;;2.27;2.10;;;;;;;;;;1711917;82;21084;-62
2021/05/18 01:30:13;;;;;;;2.77;2.33;;;;;;;;;;1713669;82;20978;-62
2021/05/18 01:32:42;;;;;;;2.60;2.40;;;;;;;;;;1713736;83;20949;-62
2021/05/18 01:35:11;;;;;;;2.42;2.22;;;;;;;;;;1668368;83;21097;-61
2021/05/18 01:37:39;;;;;;;2.92;2.72;;;;;;;;;;1712158;83;21597;-62
2021/05/18 01:42:51;;;;;;;4.17;2.55;;;;;;;;;;1708623;82;21539;-61
2021/05/18 01:45:20;;;;;;;2.30;2.20;;;;;;;;;;1713893;83;21017;-62
2021/05/18 01:47:54;;;;;;;2.62;2.42;;;;;;;;;;1706845;83;21696;-61
2021/05/18 01:50:35;;;;;;;2.75;2.55;;;;;;;;;;1713854;82;21582;-62
2021/05/18 01:53:01;;;;;;;2.92;2.62;;;;;;;;;;1713859;82;20902;-62
2021/05/18 01:57:59;;;;;;;2.40;2.20;;;;;;;;;;1708026;83;21023;-62
2021/05/18 02:00:29;;;;;;;2.60;2.40;;;;;;;;;;1708876;81;21908;-62
2021/05/18 02:02:57;;;;;;;3.72;2.42;;;;;;;;;;1707203;82;21023;-62
2021/05/18 02:05:28;;;;;;;2.17;2.02;;;;;;;;;;1704858;82;21036;-62
2021/05/18 02:08:06;;;;;;;5.97;3.45;;;;;;;;;;1702334;82;20961;-62
2021/05/18 02:10:33;;;;;;;3.17;2.92;;;;;;;;;;1704760;82;21499;-62
2021/05/18 02:13:01;;;;;;;3.55;2.55;;;;;;;;;;1714601;81;21746;-62
2021/05/18 02:20:54;;;;;;;3.20;2.62;;;;;;;;;;1713688;82;21033;-62
2021/05/18 02:26:06;;;;;;;;;;;;;;;;;;1715358;82;21606;-63
2021/05/18 02:28:37;;;;;;;3.10;2.80;;;;;;;;;;1677135;85;20162;-62
2021/05/18 02:31:04;;;;;;;3.60;3.30;;;;;;;;;;1713655;83;21566;-62
2021/05/18 02:33:38;;;;;;;3.45;2.87;;;;;;;;;;1713724;83;20966;-62
2021/05/18 02:36:05;;;;;;;3.10;2.80;;;;;;;;;;1713732;83;20990;-62
2021/05/18 02:38:32;;;;;;;3.90;3.50;;;;;;;;;;1712195;82;21041;-62
2021/05/18 02:41:01;;;;;;;3.30;3.00;;;;;;;;;;1713781;83;20903;-62
2021/05/18 02:43:34;;;;;;;3.12;2.92;;;;;;;;;;1713634;82;20974;-62
2021/05/18 02:46:10;;;;;;;3.42;3.15;;;;;;;;;;1712806;83;20989;-62
2021/05/18 02:51:17;;;;;;;4.33;3.25;;;;;;;;;;1713630;82;22228;-62
2021/05/18 02:53:49;;;;;;;3.62;3.20;;;;;;;;;;1713508;82;21574;-62
2021/05/18 02:59:08;;;;;;;4.70;2.80;;;;;;;;;;1712086;82;21010;-62
2021/05/18 03:01:23;;;;;;;3.58;3.27;;;;;;;;;;1709416;82;21089;-62
2021/05/18 03:03:50;;;;;;;3.67;3.35;;;;;;;;;;1713642;82;21112;-62
2021/05/18 03:06:16;;;;;;;3.60;3.30;;;;;;;;;;1712828;83;21000;-62
2021/05/18 03:08:43;;;;;;;3.50;3.30;;;;;;;;;;1711162;82;21384;-62
2021/05/18 03:11:09;;;;;;;4.17;3.77;;;;;;;;;;1712896;82;21022;-62
2021/05/18 03:13:36;;;;;;;4.08;3.50;;;;;;;;;;1713826;83;20970;-62
2021/05/18 03:16:02;;;;;;;3.67;3.37;;;;;;;;;;1713543;83;21164;-62
2021/05/18 03:18:28;;;;;;;3.30;3.02;;;;;;;;;;1710230;83;21034;-62
2021/05/18 03:20:54;;;;;;;3.80;3.50;;;;;;;;;;1713714;83;20993;-62
2021/05/18 03:23:20;;;;;;;3.95;3.65;;;;;;;;;;1713805;83;21029;-61
2021/05/18 03:25:46;;;;;;;3.83;3.35;;;;;;;;;;1713675;82;21140;-62
2021/05/18 03:28:13;;;;;;;3.52;3.22;;;;;;;;;;1709034;82;21080;-61
2021/05/18 03:30:51;;;;;;;4.53;4.12;;;;;;;;;;1712470;82;20943;-63
2021/05/18 03:35:55;;;;;;;4.75;3.95;;;;;;;;;;1720069;82;20989;-61
2021/05/18 03:40:57;;;;;;;4.03;3.72;;;;;;;;;;1720693;82;21111;-61
2021/05/18 04:04:53;;;;;;;4.72;4.33;;;;;;;;;;1707550;82;20984;-60
2021/05/18 04:10:18;;;;;;;4.53;3.87;;;;;;;;;;1704559;82;21541;-61
2021/05/18 04:12:51;;;;;;;4.37;4.03;;;;;;;;;;1707166;83;20928;-64
2021/05/18 04:18:17;;;;;;;7.67;5.10;;;;;;;;;;1712802;82;22291;-62
2021/05/18 05:16:18;;;;;;;6.05;4.53;;;;;;;;;;1711902;82;20966;-59
2021/05/18 05:18:44;;;;;;;6.72;5.40;;;;;;;;;;1713662;83;21021;-59
2021/05/18 05:21:11;;;;;;;5.37;4.87;;;;;;;;;;1713742;83;21041;-58
2021/05/18 05:23:38;;;;;;;8.33;5.47;;;;;;;;;;1712820;82;21554;-59
2021/05/18 05:26:04;;;;;;;7.95;4.95;;;;;;;;;;1727294;82;21083;-60
2021/05/18 05:28:30;;;;;;;6.25;5.40;;;;;;;;;;1725643;82;20927;-60
2021/05/18 05:30:56;;;;;;;8.00;4.75;;;;;;;;;;1730249;82;20988;-62
2021/05/18 05:33:23;;;;;;;7.00;5.40;;;;;;;;;;1728582;82;20993;-59
2021/05/18 05:35:51;;;;;;;8.70;5.47;;;;;;;;;;1729897;82;20903;-59
2021/05/18 05:38:19;;;;;;;5.90;5.15;;;;;;;;;;1729708;82;21066;-59
2021/05/18 05:40:46;;;;;;;5.90;5.17;;;;;;;;;;1728617;82;20990;-60
2021/05/18 05:43:13;;;;;;;7.92;5.87;;;;;;;;;;1731008;82;20923;-60
2021/05/18 05:45:39;;;;;;;8.53;5.53;;;;;;;;;;1726615;82;21620;-60
2021/05/18 05:48:06;;;;;;;9.85;6.95;;;;;;;;;;1729583;82;21106;-58
2021/05/18 05:50:33;;;;;;;10.15;9.08;;;;;;;;;;1716399;82;21663;-60
2021/05/18 05:52:59;;;;;;;9.58;8.58;;;;;;;;;;1729875;82;21513;-60
2021/05/18 05:55:25;;;;;;;11.60;8.53;;;;;;;;;;1713403;82;20991;-61
2021/05/18 05:57:52;;;;;;;13.83;9.95;;;;;;;;;;1732218;82;20978;-63
2021/05/18 06:00:19;;;;;;;20.70;13.25;;;;;;;;;;1724847;82;21019;-61
2021/05/18 06:02:46;;;;;;;14.63;10.30;;;;;;;;;;1713982;82;21138;-60
2021/05/18 06:05:12;;;;;;;12.90;9.65;;;;;;;;;;1725413;82;20911;-60
2021/05/18 06:07:38;;;;;;;13.48;9.63;;;;;;;;;;1722726;82;21653;-64
2021/05/18 06:10:19;;;;;;;12.18;8.65;;;;;;;;;;1725571;82;21007;-57
2021/05/18 06:12:51;;;;;;;10.28;7.25;;;;;;;;;;1720152;82;21638;-60
2021/05/18 06:47:34;;;;;;;9.15;6.95;;;;;;;;;;1670239;85;20998;-61
2021/05/18 06:52:43;;;;;;;9.95;7.62;;;;;;;;;;1702212;84;21457;-62
2021/05/18 06:55:13;;;;;;;9.18;7.17;;;;;;;;;;1701756;83;21141;-61
2021/05/18 06:57:41;;;;;;;6.72;6.03;;;;;;;;;;1702208;83;20956;-59
2021/05/18 07:00:09;;;;;;;8.03;6.92;;;;;;;;;;1701885;83;21030;-62
2021/05/18 07:02:37;;;;;;;11.28;6.53;;;;;;;;;;1702300;84;21058;-65
2021/05/18 07:05:10;;;;;;;9.53;7.40;;;;;;;;;;1702306;84;21015;-61
2021/05/18 07:07:34;;;;;;;11.45;6.65;;;;;;;;;;1671956;85;21753;-57
2021/05/18 07:10:01;;;;;;;10.40;6.90;;;;;;;;;;1674794;84;21668;-58
2021/05/18 07:12:27;;;;;;;8.48;6.75;;;;;;;;;;1677254;84;20982;-55
2021/05/18 07:14:53;;;;;;;9.40;7.05;;;;;;;;;;1673834;84;20964;-58
2021/05/18 07:17:19;;;;;;;9.90;6.80;;;;;;;;;;1686161;85;21495;-56
2021/05/18 07:19:45;;;;;;;7.75;6.12;;;;;;;;;;1676508;84;21115;-57
2021/05/18 07:22:12;;;;;;;8.25;6.97;;;;;;;;;;1674983;84;21023;-57
2021/05/18 07:24:38;;;;;;;8.35;6.60;;;;;;;;;;1702241;83;21013;-60
2021/05/18 07:27:05;;;;;;;11.22;6.70;;;;;;;;;;1700508;84;21070;-59
2021/05/18 07:29:31;;;;;;;6.95;6.25;;;;;;;;;;1661146;85;20941;-58
2021/05/18 07:31:57;;;;;;;8.35;5.78;;;;;;;;;;1688955;85;21065;-59
2021/05/18 07:34:23;;;;;;;7.55;5.67;;;;;;;;;;1662895;85;21656;-60
2021/05/18 07:36:49;;;;;;;6.12;5.50;;;;;;;;;;1686428;85;20944;-60
2021/05/18 07:39:15;;;;;;;9.00;5.90;;;;;;;;;;1662113;85;21020;-58
2021/05/18 07:41:42;;;;;;;11.50;5.20;;;;;;;;;;1687460;85;20964;-58
2021/05/18 07:44:08;;;;;;;5.95;5.33;;;;;;;;;;1661147;85;21066;-58
2021/05/18 07:46:38;;;;;;;5.67;5.17;;;;;;;;;;1648863;87;20967;-58
2021/05/18 07:59:46;;;;;;;5.90;5.28;;;;;;;;;;1687970;85;40449;-58
2021/05/18 08:07:20;;;;;;;6.22;5.70;;;;;;;;;;1641271;85;21040;-57
2021/05/18 08:09:51;;;;;;;6.15;5.55;;;;;;;;;;1621821;87;21836;-57
2021/05/18 08:12:17;;;;;;;6.10;5.53;;;;;;;;;;1634711;84;21150;-57
2021/05/18 08:14:55;;;;;;;6.42;5.92;;;;;;;;;;1659975;84;21068;-59
2021/05/18 08:17:23;;;;;;;5.97;5.47;;;;;;;;;;1663379;85;21624;-58
2021/05/18 08:20:20;;;;;;;5.85;5.35;;;;;;;;;;1642810;85;21030;-59
2021/05/18 09:49:23;;;;;;;7.40;4.45;;;;;;;;;;1737378;81;21705;-60
2021/05/18 10:35:46;;;;;;;2.42;1.40;;;;;;;;;;1710569;83;21013;-64
2021/05/18 10:38:09;;;;;;;1.57;1.05;;;;;;;;;;1711966;82;20962;-62
2021/05/18 10:40:39;;;;;;;2.92;1.40;;;;;;;;;;1712392;83;21101;-62
2021/05/18 10:43:08;;;;;;;2.70;1.72;;;;;;;;;;1656077;85;21052;-59
2021/05/18 10:46:03;;;;;;;4.97;2.02;;;;;;;;;;1712892;83;21018;-59
2021/05/18 10:48:39;;;;;;;4.80;2.45;;;;;;;;;;1712510;82;21045;-60
2021/05/18 10:51:42;;;;;;;4.50;2.67;;;;;;;;;;1713328;82;21066;-60
2021/05/18 10:54:18;;;;;;;3.75;3.45;;;;;;;;;;1711545;83;21721;-62
2021/05/18 10:56:59;;;;;;;5.47;3.15;;;;;;;;;;1710858;83;20965;-64
2021/05/18 10:59:34;;;;;;;3.85;3.10;;;;;;;;;;1679817;85;21051;-63
2021/05/18 11:02:06;;;;;;;4.05;2.60;;;;;;;;;;1712011;83;21003;-65
2021/05/18 11:04:41;;;;;;;4.10;2.10;;;;;;;;;;1714439;82;20990;-64
2021/05/18 11:07:09;;;;;;;4.78;2.02;;;;;;;;;;1713234;83;21088;-67
2021/05/18 11:09:35;;;;;;;3.42;1.40;;;;;;;;;;1711509;83;21013;-66
2021/05/18 11:12:10;;;;;;;5.42;3.70;;;;;;;;;;1711860;83;20923;-60
2021/05/18 11:14:48;;;;;;;4.40;3.70;;;;;;;;;;1712575;83;21002;-64
2021/05/18 11:17:18;;;;;;;6.03;1.85;;;;;;;;;;1713489;82;20998;-62
2021/05/18 11:20:03;;;;;;;2.45;1.30;;;;;;;;;;1711464;82;21173;-63
2021/05/18 11:25:13;;;;;;;1.62;1.22;;;;;;;;;;1712238;83;21014;-64
2021/05/18 11:27:40;;;;;;;1.62;1.22;;;;;;;;;;1712287;83;20951;-61
2021/05/18 11:30:07;;;;;;;2.42;1.55;;;;;;;;;;1730787;82;21067;-56
2021/05/18 11:32:33;;;;;;;5.72;1.80;;;;;;;;;;1737648;82;21102;-61
2021/05/18 11:35:02;;;;;;;1.57;1.12;;;;;;;;;;1737324;82;21012;-62
2021/05/18 11:37:29;;;;;;;1.25;1.12;;;;;;;;;;1737537;82;21514;-63
2021/05/18 11:40:15;;;;;;;5.00;1.40;;;;;;;;;;1737499;82;20993;-63
2021/05/18 11:42:42;;;;;;;2.58;2.17;;;;;;;;;;1737734;82;21079;-56
2021/05/18 11:45:16;;;;;;;2.70;1.75;;;;;;;;;;1737120;82;21088;-63
2021/05/18 11:47:45;;;;;;;3.35;2.12;;;;;;;;;;1745975;81;21011;-62
2021/05/18 11:50:23;;;;;;;3.35;1.90;;;;;;;;;;1752898;81;21721;-63
2021/05/18 11:52:50;;;;;;;3.05;1.87;;;;;;;;;;1761856;81;21627;-63
2021/05/18 11:55:28;;;;;;;12.90;4.25;;;;;;;;;;1752846;81;20971;-63
2021/05/18 11:57:54;;;;;;;4.72;3.80;;;;;;;;;;1756797;81;21061;-64
2021/05/18 12:00:26;;;;;;;5.20;4.80;;;;;;;;;;1753113;81;21632;-63
2021/05/18 12:03:05;;;;;;;6.03;4.08;;;;;;;;;;1757292;81;20999;-63
2021/05/18 12:05:32;;;;;;;7.50;3.60;;;;;;;;;;1746875;81;20995;-63
2021/05/18 12:07:58;;;;;;;12.70;8.50;;;;;;;;;;1757271;81;20971;-63
2021/05/18 12:10:27;;;;;;;11.80;9.95;;;;;;;;;;1754473;81;21635;-62
2021/05/18 12:12:54;;;;;;;5.37;4.80;;;;;;;;;;1738332;81;21658;-63
2021/05/18 12:15:20;;;;;;;7.85;3.70;;;;;;;;;;1737684;82;20909;-62
2021/05/18 12:17:46;;;;;;;5.33;4.12;;;;;;;;;;1737634;82;21111;-62
2021/05/18 12:20:14;;;;;;;8.93;6.05;;;;;;;;;;1737572;82;21008;-63
2021/05/18 12:22:42;;;;;;;4.47;4.08;;;;;;;;;;1737604;82;21151;-63
2021/05/18 12:25:10;;;;;;;5.80;4.22;;;;;;;;;;1737431;82;21566;-62
2021/05/18 12:27:44;;;;;;;5.40;3.37;;;;;;;;;;1737767;82;21033;-63
2021/05/18 12:30:12;;;;;;;4.08;3.67;;;;;;;;;;1721826;82;21614;-62
2021/05/18 12:32:48;;;;;;;2.80;2.50;;;;;;;;;;1713658;82;21061;-62
2021/05/18 12:35:20;;;;;;;2.33;2.00;;;;;;;;;;1713632;82;21079;-63
2021/05/18 12:37:49;;;;;;;2.98;1.72;;;;;;;;;;1713447;82;21029;-63
2021/05/18 12:40:28;;;;;;;2.42;1.20;;;;;;;;;;1713525;83;20986;-62
2021/05/18 12:42:55;;;;;;;2.15;1.62;;;;;;;;;;1713663;83;21038;-62
2021/05/18 12:45:22;;;;;;;1.80;1.70;;;;;;;;;;1693267;83;21021;-63
2021/05/18 12:48:01;;;;;;;2.17;1.95;;;;;;;;;;1713622;82;21102;-63
2021/05/18 12:50:43;;;;;;;4.50;2.50;;;;;;;;;;1712357;82;21045;-62
2021/05/18 12:53:28;;;;;;;2.70;1.55;;;;;;;;;;1713437;82;20930;-64
2021/05/18 12:55:55;;;;;;;2.52;2.30;;;;;;;;;;1713586;83;20966;-63
2021/05/18 12:58:28;;;;;;;4.42;3.90;;;;;;;;;;1713528;82;21626;-64
2021/05/18 13:01:06;;;;;;;4.28;2.60;;;;;;;;;;1713578;82;21701;-64
2021/05/18 13:03:33;;;;;;;3.47;2.62;;;;;;;;;;1713445;82;21584;-63
2021/05/18 13:06:00;;;;;;;2.33;2.02;;;;;;;;;;1713508;82;20894;-63
2021/05/18 13:08:38;;;;;;;4.60;2.47;;;;;;;;;;1713600;82;20946;-62
2021/05/18 13:13:56;;;;;;;2.83;1.90;;;;;;;;;;1715323;83;21380;-63
2021/05/18 13:16:25;;;;;;;1.92;1.40;;;;;;;;;;1704771;83;21026;-63
2021/05/18 13:19:03;;;;;;;1.90;1.60;;;;;;;;;;1716593;83;20899;-63
2021/05/18 13:21:44;;;;;;;3.22;1.47;;;;;;;;;;1715620;83;20930;-62
2021/05/18 13:26:38;;;;;;;2.27;1.45;;;;;;;;;;1713644;82;21162;-62
2021/05/18 13:29:15;;;;;;;3.90;1.47;;;;;;;;;;1713660;82;21029;-62
2021/05/18 13:31:41;;;;;;;4.08;2.12;;;;;;;;;;1713929;82;21566;-62
2021/05/18 13:34:07;;;;;;;1.65;1.50;;;;;;;;;;1713663;82;21061;-63
2021/05/18 13:36:34;;;;;;;6.58;2.90;;;;;;;;;;1713774;82;20878;-63
2021/05/18 13:39:07;;;;;;;3.75;2.20;;;;;;;;;;1713638;83;21135;-63
2021/05/18 13:41:33;;;;;;;3.75;2.10;;;;;;;;;;1712564;82;20923;-63
2021/05/18 13:44:02;;;;;;;4.92;4.03;;;;;;;;;;1713575;82;21018;-63
2021/05/18 13:46:28;;;;;;;4.12;3.25;;;;;;;;;;1713529;83;20998;-64
2021/05/18 13:48:55;;;;;;;5.60;3.50;;;;;;;;;;1713721;83;21018;-63
2021/05/18 13:51:21;;;;;;;7.45;4.83;;;;;;;;;;1713710;83;21108;-63
2021/05/18 13:53:47;;;;;;;12.47;6.83;;;;;;;;;;1713842;83;21626;-64
2021/05/18 13:56:13;;;;;;;7.78;5.25;;;;;;;;;;1709436;82;21057;-63
2021/05/18 13:58:40;;;;;;;6.67;5.53;;;;;;;;;;1712880;82;20961;-63
2021/05/18 14:01:08;;;;;;;4.80;4.30;;;;;;;;;;1713604;83;20974;-62
2021/05/18 14:03:35;;;;;;;4.55;4.15;;;;;;;;;;1712893;82;21129;-63
2021/05/18 14:06:03;;;;;;;5.08;3.83;;;;;;;;;;1709259;82;20902;-63
2021/05/18 14:08:31;;;;;;;4.67;3.70;;;;;;;;;;1703445;82;20995;-63
2021/05/18 14:11:03;;;;;;;3.50;3.08;;;;;;;;;;1727014;82;21050;-62
2021/05/18 14:13:33;;;;;;;4.83;3.30;;;;;;;;;;1707278;83;20938;-63
2021/05/18 14:16:01;;;;;;;5.53;3.85;;;;;;;;;;1713672;83;21669;-62
2021/05/18 14:18:27;;;;;;;5.10;4.15;;;;;;;;;;1641235;87;20996;-63
2021/05/18 14:20:54;;;;;;;5.33;4.83;;;;;;;;;;1700629;83;21486;-63
2021/05/18 14:23:24;;;;;;;8.48;6.30;;;;;;;;;;1716337;83;21029;-63
2021/05/18 14:25:52;;;;;;;6.05;5.55;;;;;;;;;;1716394;82;21433;-63
2021/05/18 14:28:18;;;;;;;5.28;4.87;;;;;;;;;;1713542;83;21085;-63
2021/05/18 14:30:44;;;;;;;5.10;4.70;;;;;;;;;;1728156;82;21012;-62
2021/05/18 14:33:10;;;;;;;5.75;5.35;;;;;;;;;;1737659;82;21627;-63
2021/05/18 14:35:37;;;;;;;6.45;5.62;;;;;;;;;;1737695;82;21049;-63
2021/05/18 14:38:13;;;;;;;8.73;7.92;;;;;;;;;;1737611;82;20937;-62
2021/05/18 14:43:40;;;;;;;9.45;8.48;;;;;;;;;;1737705;82;21012;-63
2021/05/18 14:45:39;;;;;;;8.43;7.20;;;;;;;;;;1733080;82;21016;-63
2021/05/18 14:53:51;;;;;;;8.88;5.75;;;;;;;;;;1737818;82;21112;-63
2021/05/18 14:56:11;;;;;;;8.40;6.37;;;;;;;;;;1736311;82;21036;-63
2021/05/18 14:58:38;;;;;;;4.60;3.30;;;;;;;;;;1737574;82;20964;-62
2021/05/18 15:01:04;;;;;;;2.65;2.45;;;;;;;;;;1737832;82;20993;-63
2021/05/18 15:03:32;;;;;;;1.90;1.57;;;;;;;;;;1737771;81;20905;-62
2021/05/18 15:05:59;;;;;;;2.17;1.50;;;;;;;;;;1737528;82;21018;-63
2021/05/18 15:08:26;;;;;;;5.85;1.20;;;;;;;;;;1737535;82;21004;-63
2021/05/18 15:10:57;;;;;;;1.70;1.22;;;;;;;;;;1737612;82;21242;-63
2021/05/18 15:13:23;;;;;;;1.30;1.20;;;;;;;;;;1737569;82;20982;-63
2021/05/18 15:15:51;;;;;;;1.80;1.00;;;;;;;;;;1737768;82;20929;-63
2021/05/18 15:18:18;;;;;;;1.20;0.98;;;;;;;;;;1737707;82;21070;-63
2021/05/18 15:20:45;;;;;;;2.30;0.80;;;;;;;;;;1737530;82;21677;-62
2021/05/18 15:23:12;;;;;;;0.82;0.80;;;;;;;;;;1737804;82;20898;-62
2021/05/18 15:25:39;;;;;;;1.20;0.90;;;;;;;;;;1737662;82;20976;-63
2021/05/18 15:28:05;;;;;;;1.00;0.90;;;;;;;;;;1737420;82;21116;-64
2021/05/18 15:30:32;;;;;;;1.10;1.00;;;;;;;;;;1734372;82;21097;-63
2021/05/18 15:32:58;;;;;;;1.37;1.00;;;;;;;;;;1733651;82;21083;-65
2021/05/18 15:35:24;;;;;;;1.15;1.07;;;;;;;;;;1734859;82;20878;-65
2021/05/18 15:37:50;;;;;;;1.15;0.90;;;;;;;;;;1734639;82;21017;-64
2021/05/18 15:40:16;;;;;;;1.12;0.93;;;;;;;;;;1728776;82;21606;-65
2021/05/18 15:42:43;;;;;;;0.60;0.60;;;;;;;;;;1731827;82;21071;-68
2021/05/18 15:45:10;;;;;;;1.15;0.70;;;;;;;;;;1713629;82;20985;-66
2021/05/18 15:47:37;;;;;;;0.68;0.50;;;;;;;;;;1735962;81;21028;-64
2021/05/18 15:50:07;;;;;;;0.60;0.60;;;;;;;;;;1734447;82;20996;-66
2021/05/18 15:52:35;;;;;;;2.05;0.65;;;;;;;;;;1732952;81;21005;-56
2021/05/18 15:55:03;;;;;;;1.15;1.00;;;;;;;;;;1731453;82;21068;-57
2021/05/18 15:57:29;;;;;;;2.02;1.85;;;;;;;;;;1734649;82;21000;-58
2021/05/18 15:59:56;;;;;;;1.60;1.32;;;;;;;;;;1734714;82;20989;-55
2021/05/18 16:02:22;;;;;;;0.70;0.70;;;;;;;;;;1714377;82;21060;-62
2021/05/18 16:04:48;;;;;;;0.85;0.82;;;;;;;;;;1734804;82;21564;-63
2021/05/18 16:07:16;;;;;;;1.10;0.60;;;;;;;;;;1734788;82;21084;-64
2021/05/18 16:09:43;;;;;;;1.57;0.50;;;;;;;;;;1734529;82;21005;-63
2021/05/18 16:12:10;;;;;;;1.50;0.60;;;;;;;;;;1731475;81;21580;-55
2021/05/18 16:14:37;;;;;;;0.95;0.60;;;;;;;;;;1734421;82;21016;-68
2021/05/18 16:17:03;;;;;;;0.75;0.75;;;;;;;;;;1748956;81;20876;-55
2021/05/18 16:19:30;;;;;;;0.82;0.75;;;;;;;;;;1738380;81;21880;-59
2021/05/18 16:21:56;;;;;;;1.37;0.70;;;;;;;;;;1730224;82;21052;-51
2021/05/18 16:24:24;;;;;;;0.80;0.80;;;;;;;;;;1734916;82;20969;-50
2021/05/18 16:26:52;;;;;;;1.25;0.90;;;;;;;;;;1734862;82;21575;-56
2021/05/18 16:29:20;;;;;;;1.12;1.02;;;;;;;;;;1734856;82;20980;-55
2021/05/18 16:31:46;;;;;;;2.95;2.60;;;;;;;;;;1716300;82;21010;-54
2021/05/18 16:34:12;;;;;;;3.27;2.83;;;;;;;;;;1737368;82;22303;-64
2021/05/18 16:36:39;;;;;;;2.47;2.27;;;;;;;;;;1737532;82;21063;-65
2021/05/18 16:39:05;;;;;;;2.75;2.12;;;;;;;;;;1737507;82;20904;-63
2021/05/18 16:41:34;;;;;;;4.58;2.30;;;;;;;;;;1737537;82;21589;-68
2021/05/18 16:44:01;;;;;;;2.85;2.65;;;;;;;;;;1737622;82;21097;-66
2021/05/18 16:46:27;;;;;;;2.37;2.17;;;;;;;;;;1737436;82;21535;-71
2021/05/18 16:48:54;;;;;;;4.00;3.30;;;;;;;;;;1733782;82;21051;-69
2021/05/18 16:51:40;;;;;;;7.65;3.92;;;;;;;;;;1725087;82;20974;-69
2021/05/18 16:54:07;;;;;;;5.17;4.42;;;;;;;;;;1729644;81;21600;-64
2021/05/18 16:56:33;;;;;;;5.90;5.30;;;;;;;;;;1747355;81;21072;-65
2021/05/18 16:59:00;;;;;;;6.53;5.67;;;;;;;;;;1731506;82;21003;-66
2021/05/18 17:01:26;;;;;;;5.22;4.55;;;;;;;;;;1743105;81;20943;-69
2021/05/18 17:03:52;;;;;;;4.30;3.90;;;;;;;;;;1734170;81;20963;-69
2021/05/18 17:06:18;;;;;;;6.85;4.62;;;;;;;;;;1731882;81;22257;-70
2021/05/18 17:08:45;;;;;;;6.40;4.60;;;;;;;;;;1733162;81;21051;-71
2021/05/18 17:11:12;;;;;;;8.95;7.97;;;;;;;;;;1731464;81;21039;-66
2021/05/18 17:13:40;;;;;;;8.98;7.47;;;;;;;;;;1753571;81;20923;-69
2021/05/18 17:16:08;;;;;;;11.25;8.50;;;;;;;;;;1735424;81;21003;-65
2021/05/18 17:18:36;;;;;;;9.73;8.78;;;;;;;;;;1737628;81;21549;-68
2021/05/18 17:21:04;;;;;;;14.55;12.33;;;;;;;;;;1729152;81;21045;-59
2021/05/18 17:23:31;;;;;;;14.23;12.35;;;;;;;;;;1731531;81;20916;-53
2021/05/18 17:25:57;;;;;;;15.80;12.90;;;;;;;;;;1731552;81;20967;-57
2021/05/18 17:28:24;;;;;;;12.43;11.08;;;;;;;;;;1731770;81;20964;-54
2021/05/18 17:30:52;;;;;;;12.82;10.23;;;;;;;;;;1730938;81;21003;-56
2021/05/18 17:33:19;;;;;;;10.00;8.80;;;;;;;;;;1715709;81;21685;-60
2021/05/18 17:35:45;;;;;;;8.18;5.53;;;;;;;;;;1709837;82;21552;-58
2021/05/18 17:38:11;;;;;;;8.30;5.72;;;;;;;;;;1676939;84;21012;-57
2021/05/18 17:40:40;;;;;;;6.58;5.40;;;;;;;;;;1681369;84;21058;-55
2021/05/18 17:43:06;;;;;;;6.75;4.78;;;;;;;;;;1680540;82;21020;-56
2021/05/18 17:45:34;;;;;;;6.80;5.47;;;;;;;;;;1673410;85;21559;-56
2021/05/18 17:48:03;;;;;;;4.85;4.35;;;;;;;;;;1678830;84;21137;-57
2021/05/18 17:50:28;;;;;;;4.90;3.52;;;;;;;;;;1652621;85;21107;-55
2021/05/18 17:52:54;;;;;;;3.22;2.92;;;;;;;;;;1698171;83;20962;-55
2021/05/18 17:55:23;;;;;;;4.20;2.98;;;;;;;;;;1702239;82;21033;-55
2021/05/18 17:57:51;;;;;;;3.08;2.67;;;;;;;;;;1700753;81;21659;-56
2021/05/18 18:00:19;;;;;;;4.62;2.70;;;;;;;;;;1663331;84;21004;-51
2021/05/18 18:02:46;;;;;;;4.22;3.30;;;;;;;;;;1696673;83;21066;-60
2021/05/18 18:05:13;;;;;;;2.92;2.70;;;;;;;;;;1701055;83;21002;-58
2021/05/18 18:07:39;;;;;;;4.85;4.45;;;;;;;;;;1705234;83;21602;-60
2021/05/18 18:10:07;;;;;;;3.95;3.62;;;;;;;;;;1696592;82;21033;-59
2021/05/18 18:12:34;;;;;;;4.00;3.58;;;;;;;;;;1712101;82;21022;-60
2021/05/18 18:15:01;;;;;;;3.52;3.15;;;;;;;;;;1722749;81;20992;-62
2021/05/18 18:17:28;;;;;;;3.47;3.12;;;;;;;;;;1718545;82;20962;-62
2021/05/18 18:19:55;;;;;;;3.98;3.10;;;;;;;;;;1716040;83;21666;-59
2021/05/18 18:22:22;;;;;;;4.12;3.22;;;;;;;;;;1704875;82;21129;-60
2021/05/18 18:24:48;;;;;;;4.85;3.70;;;;;;;;;;1697485;83;21029;-60
2021/05/18 18:27:17;;;;;;;6.50;4.00;;;;;;;;;;1709473;81;21652;-57
2021/05/18 18:29:44;;;;;;;4.62;4.12;;;;;;;;;;1722554;82;21037;-56
2021/05/18 18:32:10;;;;;;;3.67;3.37;;;;;;;;;;1722348;81;21079;-57
2021/05/18 18:34:37;;;;;;;4.83;4.42;;;;;;;;;;1722699;82;22209;-56
2021/05/18 18:37:07;;;;;;;6.50;4.37;;;;;;;;;;1722545;82;21502;-58
2021/05/18 18:39:33;;;;;;;6.12;5.50;;;;;;;;;;1722676;82;20956;-58
2021/05/18 18:41:59;;;;;;;6.50;5.87;;;;;;;;;;1722249;83;21579;-61
2021/05/18 18:44:26;;;;;;;7.58;6.80;;;;;;;;;;1722550;81;20933;-56
2021/05/18 18:46:52;;;;;;;6.65;6.05;;;;;;;;;;1722690;83;21079;-57
2021/05/18 18:49:21;;;;;;;5.42;4.92;;;;;;;;;;1722590;81;21029;-59
2021/05/18 18:51:46;;;;;;;5.60;5.12;;;;;;;;;;1722313;82;21031;-57
2021/05/18 18:54:12;;;;;;;6.78;4.72;;;;;;;;;;1722630;83;20992;-58
2021/05/18 18:56:39;;;;;;;4.60;4.22;;;;;;;;;;1722756;82;20950;-56
2021/05/18 18:59:05;;;;;;;3.20;3.00;;;;;;;;;;1720813;81;21051;-56
2021/05/18 19:01:38;;;;;;;3.40;3.10;;;;;;;;;;1720770;83;20989;-58
2021/05/18 19:04:03;;;;;;;6.65;6.00;;;;;;;;;;1721068;81;21023;-59
2021/05/18 19:13:56;;;;;;;4.40;4.05;;;;;;;;;;1722626;82;21057;-57
2021/05/18 19:16:24;;;;;;;4.55;3.80;;;;;;;;;;1722767;82;20973;-60
2021/05/18 19:18:51;;;;;;;3.60;3.30;;;;;;;;;;1722968;83;21029;-59
2021/05/18 19:21:17;;;;;;;3.12;2.80;;;;;;;;;;1725565;81;21654;-56
2021/05/18 19:23:45;;;;;;;3.20;2.90;;;;;;;;;;1722613;82;21165;-56
2021/05/18 19:26:11;;;;;;;4.22;3.83;;;;;;;;;;1722792;83;20930;-58
2021/05/18 19:28:40;;;;;;;4.12;3.83;;;;;;;;;;1722878;83;21065;-58
2021/05/18 19:31:10;;;;;;;3.17;2.98;;;;;;;;;;1722571;83;21009;-56
2021/05/18 19:33:40;;;;;;;4.30;3.45;;;;;;;;;;1722681;83;21073;-59
2021/05/18 19:41:32;;;;;;;8.08;5.00;;;;;;;;;;1722835;82;20930;-57
2021/05/18 19:44:00;;;;;;;8.25;5.42;;;;;;;;;;1721898;82;20925;-59
2021/05/18 19:49:31;;;;;;;12.20;8.05;;;;;;;;;;1723062;81;21072;-57
2021/05/18 19:51:49;;;;;;;17.50;10.48;;;;;;;;;;1730642;81;20981;-56
2021/05/18 19:54:20;;;;;;;16.60;10.78;;;;;;;;;;1731398;82;21048;-58
2021/05/18 19:56:58;;;;;;;12.28;8.60;;;;;;;;;;1731554;82;21013;-56
2021/05/18 20:08:09;;;;;;;12.15;8.08;;;;;;;;;;1730805;82;21040;-57
2021/05/18 20:10:39;;;;;;;10.10;6.53;;;;;;;;;;1705158;82;21162;-56
2021/05/18 20:23:32;;;;;;;8.23;5.17;;;;;;;;;;1731317;82;20942;-59
2021/05/18 20:25:58;;;;;;;7.55;5.35;;;;;;;;;;1730789;81;20973;-57
2021/05/18 20:28:24;;;;;;;14.30;11.60;;;;;;;;;;1731601;81;21619;-58
2021/05/18 20:30:51;;;;;;;7.65;6.65;;;;;;;;;;1731535;81;20882;-58
2021/05/18 20:41:27;;;;;;;7.03;4.92;;;;;;;;;;1731950;81;21082;-58
2021/05/18 20:43:53;;;;;;;6.47;4.67;;;;;;;;;;1731518;82;20894;-58